Time;durP1;ratioP1;P1;durP2;ratioP2;P2;SDS_P1;SDS_P2;PMS_P1;PMS_P2;Temp;Humidity;BMP_temperature;BMP_pressure;BME280_temperature;BME280_humidity;BME280_pressure;Samples;Min_cycle;Max_cycle;Signal;HPM_P1;HPM_P2
2023/08/10 00:00:30;;;;;;;3.30;1.97;;;18.90;72.50;;;21.75;47.31;101860.22;5035648;28;20249;-61
2023/08/10 00:02:57;;;;;;;5.50;2.10;;;18.90;73.00;;;21.72;47.25;101864.16;5036012;28;20655;-61
2023/08/10 00:05:26;;;;;;;2.53;1.93;;;18.80;73.20;;;21.68;47.26;101862.16;5036208;28;20210;-61
2023/08/10 00:07:53;;;;;;;4.73;2.50;;;18.80;73.60;;;21.63;47.71;101864.66;5036378;28;20629;-61
2023/08/10 00:10:20;;;;;;;4.60;2.33;;;18.70;73.90;;;21.60;47.97;101863.22;5035653;28;20249;-62
2023/08/10 00:12:47;;;;;;;4.07;2.30;;;18.70;74.50;;;21.56;48.09;101870.09;5035871;28;20519;-61
2023/08/10 00:15:14;;;;;;;3.37;2.00;;;18.60;74.60;;;21.54;48.17;101862.25;5036190;28;20245;-61
2023/08/10 00:17:41;;;;;;;4.63;2.23;;;18.60;74.90;;;21.52;48.31;101864.31;5035701;28;20264;-60
2023/08/10 00:20:10;;;;;;;3.73;1.93;;;18.60;74.80;;;21.48;47.89;101863.13;5035796;28;20218;-62
2023/08/10 00:22:39;;;;;;;2.60;2.10;;;18.60;74.80;;;21.44;48.57;101867.25;5035663;28;20268;-60
2023/08/10 00:25:07;;;;;;;4.10;1.77;;;18.50;74.90;;;21.39;48.45;101859.09;5034451;28;20306;-61
2023/08/10 00:27:37;;;;;;;6.47;2.23;;;18.50;74.90;;;21.37;48.57;101868.38;5035938;28;20187;-61
2023/08/10 00:30:06;;;;;;;3.77;1.97;;;18.40;75.30;;;21.34;48.84;101856.25;5035182;28;20217;-61
2023/08/10 00:32:33;;;;;;;4.00;2.03;;;18.40;75.40;;;21.33;48.50;101859.94;5035674;28;20289;-61
2023/08/10 00:35:00;;;;;;;3.13;1.83;;;18.40;75.30;;;21.32;48.33;101862.84;5031977;28;20293;-61
2023/08/10 00:37:27;;;;;;;2.53;1.93;;;18.40;75.20;;;21.30;48.77;101864.94;5023808;28;20182;-61
2023/08/10 00:39:55;;;;;;;3.10;2.00;;;18.40;75.10;;;21.25;48.76;101860.19;5033916;28;20214;-58
2023/08/10 00:42:23;;;;;;;5.37;1.93;;;18.40;75.10;;;21.22;49.30;101863.31;5035334;28;20758;-61
2023/08/10 00:44:50;;;;;;;3.20;1.70;;;18.30;75.50;;;21.19;49.09;101865.59;5035282;28;20313;-63
2023/08/10 00:47:17;;;;;;;3.93;1.80;;;18.30;75.40;;;21.14;49.46;101870.78;5035477;28;20195;-62
2023/08/10 00:49:44;;;;;;;5.07;2.10;;;18.30;75.50;;;21.09;49.74;101876.78;5034954;28;20629;-60
2023/08/10 00:52:11;;;;;;;3.87;2.40;;;18.30;75.90;;;20.98;50.17;101877.44;5035040;28;20274;-62
2023/08/10 00:54:39;;;;;;;3.03;1.90;;;18.20;76.70;;;20.78;50.37;101876.72;5035582;28;20274;-60
2023/08/10 00:57:07;;;;;;;5.00;2.23;;;18.20;76.90;;;20.62;51.25;101877.22;5035164;28;20663;-61
2023/08/10 00:59:37;;;;;;;3.60;2.40;;;18.00;77.20;;;20.48;51.27;101880.97;5034722;28;20293;-62
2023/08/10 01:02:05;;;;;;;4.43;2.30;;;17.90;77.20;;;20.45;51.68;101881.38;5035281;28;20705;-60
2023/08/10 01:04:33;;;;;;;6.80;2.27;;;17.90;77.70;;;20.47;51.43;101884.66;5034896;28;20217;-58
2023/08/10 01:07:10;;;;;;;3.57;2.23;;;17.80;77.70;;;20.46;50.85;101883.03;5034816;28;20218;-61
2023/08/10 01:09:46;;;;;;;4.33;1.97;;;17.80;78.10;;;20.46;50.67;101883.03;5034268;28;20689;-60
2023/08/10 01:12:31;;;;;;;5.13;2.40;;;17.70;78.10;;;20.48;50.88;101886.31;5035107;28;20201;-61
2023/08/10 01:15:07;;;;;;;4.57;1.67;;;17.70;78.50;;;20.48;51.06;101886.31;5034813;28;20221;-60
2023/08/10 01:17:50;;;;;;;4.83;1.93;;;17.70;78.60;;;20.46;51.36;101896.41;5034909;28;20281;-62
2023/08/10 01:20:21;;;;;;;4.17;2.00;;;17.70;78.60;;;20.50;51.30;101889.59;5034724;28;20241;-62
2023/08/10 01:22:59;;;;;;;3.63;2.10;;;17.70;78.70;;;20.48;50.61;101891.69;5035044;28;20278;-60
2023/08/10 01:25:29;;;;;;;2.97;1.80;;;17.60;78.50;;;20.49;51.40;101893.34;5034378;28;20215;-62
2023/08/10 01:27:57;;;;;;;3.70;2.53;;;17.60;79.10;;;20.52;51.60;101903.59;5034696;28;20179;-61
2023/08/10 01:30:24;;;;;;;3.40;2.07;;;17.60;79.30;;;20.53;51.43;101894.53;5034398;28;20305;-62
2023/08/10 01:32:52;;;;;;;5.07;2.57;;;17.60;79.20;;;20.55;50.77;101900.50;5034981;28;20543;-61
2023/08/10 01:35:19;;;;;;;3.50;2.20;;;17.60;78.90;;;20.55;50.87;101900.50;5029178;28;20187;-62
2023/08/10 01:37:47;;;;;;;5.23;2.43;;;17.60;79.10;;;20.54;51.26;101906.91;5025278;28;20195;-64
2023/08/10 01:40:15;;;;;;;6.23;2.60;;;17.60;78.90;;;20.51;51.00;101897.44;5033712;28;20230;-61
2023/08/10 01:42:44;;;;;;;4.33;2.37;;;17.60;78.80;;;20.49;50.74;101899.47;5034040;28;20277;-63
2023/08/10 01:45:12;;;;;;;4.20;2.63;;;17.60;78.90;;;20.47;50.83;101900.72;5034193;28;20245;-61
2023/08/10 01:47:48;;;;;;;3.43;2.60;;;17.50;78.90;;;20.43;51.18;101907.53;5034307;28;20187;-62
2023/08/10 01:50:19;;;;;;;3.70;2.40;;;17.50;79.10;;;20.40;51.18;101905.28;5033945;28;20210;-63
2023/08/10 01:52:50;;;;;;;6.83;3.00;;;17.50;79.20;;;20.37;50.91;101908.38;5034030;28;20226;-63
2023/08/10 01:55:19;;;;;;;6.17;2.67;;;17.50;79.30;;;20.35;50.92;101907.78;5034347;28;20706;-63
2023/08/10 01:57:49;;;;;;;3.37;2.63;;;17.40;79.40;;;20.31;51.44;101904.69;5034194;28;20194;-62
2023/08/10 02:00:16;;;;;;;7.17;3.00;;;17.40;80.00;;;20.32;51.46;101908.19;5033806;28;20210;-61
2023/08/10 02:02:43;;;;;;;7.57;2.83;;;17.40;80.10;;;20.31;51.54;101907.38;5034472;28;20183;-63
2023/08/10 02:05:12;;;;;;;5.77;3.03;;;17.40;80.10;;;20.29;51.75;101921.97;5034077;28;20218;-62
2023/08/10 02:07:41;;;;;;;4.00;3.10;;;17.40;80.10;;;20.25;51.88;101910.91;5034100;28;20201;-59
2023/08/10 02:10:12;;;;;;;3.80;3.10;;;17.30;80.10;;;20.20;51.52;101913.34;5033743;28;20237;-62
2023/08/10 02:12:39;;;;;;;4.57;2.87;;;17.30;80.30;;;20.15;52.11;101908.63;5034362;28;20285;-61
2023/08/10 02:15:08;;;;;;;6.57;3.53;;;17.30;80.70;;;20.14;52.24;101901.63;5034203;28;20210;-61
2023/08/10 02:17:35;;;;;;;4.43;2.97;;;17.30;80.80;;;20.14;52.05;101901.63;5034140;28;20191;-64
2023/08/10 02:20:11;;;;;;;3.20;2.50;;;17.20;81.00;;;20.14;52.60;101906.97;5033785;28;20602;-60
2023/08/10 02:22:41;;;;;;;4.53;2.80;;;17.20;81.20;;;20.15;52.12;101919.31;5033826;28;20201;-61
2023/08/10 02:25:09;;;;;;;6.23;3.27;;;17.20;81.20;;;20.15;52.71;101913.13;5033536;28;20309;-61
2023/08/10 02:27:38;;;;;;;4.87;3.03;;;17.20;81.30;;;20.15;52.42;101927.34;5033620;28;20223;-60
2023/08/10 02:30:09;;;;;;;5.97;2.80;;;17.20;81.20;;;20.10;52.36;101913.75;5033224;28;20221;-64
2023/08/10 02:32:37;;;;;;;4.13;3.17;;;17.20;81.30;;;20.09;52.65;101920.13;5033673;28;20182;-63
2023/08/10 02:35:05;;;;;;;4.93;2.83;;;17.20;81.30;;;20.06;52.63;101915.19;5033148;28;20655;-62
2023/08/10 02:37:33;;;;;;;4.83;3.63;;;17.20;81.50;;;20.05;52.39;101916.22;5033146;28;20258;-60
2023/08/10 02:40:00;;;;;;;4.23;3.30;;;17.20;81.60;;;20.00;52.53;101916.03;5033462;28;20210;-61
2023/08/10 02:42:28;;;;;;;7.70;3.63;;;17.10;81.50;;;19.98;52.84;101915.41;5033778;28;20232;-61
2023/08/10 02:44:55;;;;;;;6.73;3.50;;;17.10;81.80;;;19.96;52.71;101913.97;5033392;28;20243;-61
2023/08/10 02:47:23;;;;;;;6.33;3.40;;;17.10;82.10;;;19.97;53.16;101915.59;5033451;28;20229;-62
2023/08/10 02:49:50;;;;;;;5.50;3.63;;;17.00;82.50;;;19.98;53.04;101910.06;5032675;28;20249;-61
2023/08/10 02:52:17;;;;;;;4.07;3.43;;;17.10;82.70;;;20.02;53.37;101903.28;5033217;28;20285;-60
2023/08/10 02:54:44;;;;;;;8.07;3.60;;;17.10;82.40;;;20.02;53.16;101908.63;5034205;28;20208;-59
2023/08/10 02:57:11;;;;;;;4.93;4.30;;;17.10;82.20;;;20.01;52.86;101904.31;5037436;28;20273;-60
2023/08/10 02:59:38;;;;;;;4.80;3.17;;;17.10;82.30;;;19.99;53.18;101903.69;5037078;28;20220;-61
2023/08/10 03:02:06;;;;;;;6.53;3.33;;;17.10;82.50;;;20.01;53.27;101903.50;5037356;28;20190;-61
2023/08/10 03:04:34;;;;;;;5.77;3.00;;;17.10;82.80;;;20.05;53.65;101904.72;5036446;28;20730;-62
2023/08/10 03:07:02;;;;;;;4.30;3.17;;;17.20;82.80;;;20.08;52.90;101907.81;5037305;28;20211;-63
2023/08/10 03:09:29;;;;;;;6.07;3.93;;;17.20;82.40;;;20.10;53.05;101916.44;5036657;28;20221;-62
2023/08/10 03:11:56;;;;;;;5.70;3.53;;;17.20;82.20;;;20.13;53.12;101921.34;5037175;28;20228;-61
2023/08/10 03:14:23;;;;;;;6.97;3.20;;;17.20;82.20;;;20.11;53.31;101912.72;5036863;28;20194;-63
2023/08/10 03:16:50;;;;;;;5.53;2.90;;;17.30;82.30;;;20.15;52.94;101921.97;5036779;28;20269;-63
2023/08/10 03:19:17;;;;;;;4.87;2.97;;;17.30;82.40;;;20.19;52.88;101915.19;5036697;28;20270;-63
2023/08/10 03:21:45;;;;;;;5.07;3.40;;;17.30;82.30;;;20.23;52.80;101913.75;5036717;28;20277;-63
2023/08/10 03:24:12;;;;;;;3.67;3.00;;;17.30;82.10;;;20.29;52.82;101916.63;5036877;28;20309;-61
2023/08/10 03:26:39;;;;;;;5.13;3.63;;;17.30;82.20;;;20.32;52.74;101918.88;5036954;28;20360;-60
2023/08/10 03:29:06;;;;;;;4.03;3.40;;;17.40;81.80;;;20.32;52.62;101916.22;5036604;28;20190;-61
2023/08/10 03:31:33;;;;;;;6.67;3.57;;;17.40;81.60;;;20.31;52.50;101914.56;5036784;28;20241;-63
2023/08/10 03:34:00;;;;;;;5.13;3.60;;;17.40;81.70;;;20.29;52.37;101919.31;5036604;28;20505;-62
2023/08/10 03:36:27;;;;;;;5.53;4.17;;;17.30;81.50;;;20.24;52.06;101911.91;5022940;28;20205;-62
2023/08/10 03:38:55;;;;;;;5.60;4.10;;;17.30;81.40;;;20.18;52.59;101916.19;5036238;28;20187;-62
2023/08/10 03:41:23;;;;;;;7.10;4.70;;;17.20;81.60;;;20.14;52.37;101920.31;5036890;28;20190;-64
2023/08/10 03:43:49;;;;;;;6.20;3.93;;;17.20;81.70;;;20.06;52.85;101917.84;5036476;28;20203;-62
2023/08/10 03:46:16;;;;;;;4.63;3.43;;;17.20;81.90;;;20.01;53.05;101927.56;5035938;28;20233;-61
2023/08/10 03:48:44;;;;;;;5.63;3.27;;;17.10;82.00;;;19.95;52.96;101931.03;5035744;28;20601;-58
2023/08/10 03:51:11;;;;;;;5.63;4.53;;;17.00;82.10;;;19.89;52.88;101943.38;5036398;28;20211;-63
2023/08/10 03:53:38;;;;;;;10.57;4.70;;;17.00;82.50;;;19.83;52.97;101936.19;5036296;28;20667;-61
2023/08/10 03:56:06;;;;;;;10.50;4.97;;;16.90;82.70;;;19.79;53.49;101942.16;5036350;28;20222;-62
2023/08/10 03:58:33;;;;;;;9.37;4.77;;;16.90;83.00;;;19.74;53.54;101945.44;5035702;28;20193;-60
2023/08/10 04:01:02;;;;;;;7.30;4.40;;;16.80;82.90;;;19.70;53.40;101954.06;5035996;28;20218;-61
2023/08/10 04:03:30;;;;;;;6.60;4.43;;;16.80;82.90;;;19.63;53.66;101951.41;5036233;28;20221;-64
2023/08/10 04:05:57;;;;;;;7.40;4.27;;;16.80;83.20;;;19.58;53.56;101954.69;5035252;28;20214;-61
2023/08/10 04:08:24;;;;;;;9.10;4.80;;;16.70;83.40;;;19.53;53.58;101958.97;5036353;28;20222;-61
2023/08/10 04:10:51;;;;;;;8.73;4.73;;;16.60;83.40;;;19.48;53.95;101959.59;5035695;28;20277;-61
2023/08/10 04:13:19;;;;;;;5.63;3.90;;;16.60;83.60;;;19.44;53.69;101954.84;5035706;28;20245;-62
2023/08/10 04:15:48;;;;;;;5.73;4.60;;;16.60;83.90;;;19.41;54.23;101952.59;5035611;28;20598;-62
2023/08/10 04:18:15;;;;;;;8.13;5.13;;;16.50;84.20;;;19.39;54.04;101955.47;5035790;28;20201;-61
2023/08/10 04:20:42;;;;;;;6.07;4.23;;;16.50;84.30;;;19.39;54.17;101954.63;5035370;28;20321;-63
2023/08/10 04:23:09;;;;;;;6.63;4.00;;;16.50;84.50;;;19.35;54.20;101950.69;5035911;28;20195;-63
2023/08/10 04:25:36;;;;;;;7.07;4.23;;;16.40;84.40;;;19.33;54.68;101952.72;5035670;28;20293;-60
2023/08/10 04:28:04;;;;;;;4.30;3.70;;;16.40;84.70;;;19.32;54.61;101959.09;5035595;28;20197;-62
2023/08/10 04:30:32;;;;;;;5.63;4.50;;;16.40;85.10;;;19.34;54.59;101959.72;5015345;28;20211;-63
2023/08/10 04:32:59;;;;;;;8.20;4.80;;;16.40;85.20;;;19.37;54.63;101960.16;5015495;28;20196;-63
2023/08/10 04:35:27;;;;;;;6.40;4.30;;;16.40;85.20;;;19.37;54.47;101957.50;5021543;28;20194;-62
2023/08/10 04:37:54;;;;;;;6.00;4.03;;;16.40;85.00;;;19.36;54.62;101957.72;5034398;28;20199;-62
2023/08/10 04:40:23;;;;;;;6.03;4.33;;;16.40;84.90;;;19.37;54.64;101956.69;5035567;28;20206;-62
2023/08/10 04:42:50;;;;;;;7.47;3.70;;;16.40;84.90;;;19.37;54.92;101959.38;5021123;28;20641;-63
2023/08/10 04:45:18;;;;;;;5.47;4.27;;;16.40;85.30;;;19.40;54.57;101961.59;5034839;28;20687;-61
2023/08/10 04:47:46;;;;;;;6.17;4.63;;;16.40;85.30;;;19.42;54.73;101956.91;5034734;28;20632;-63
2023/08/10 04:50:14;;;;;;;7.77;4.93;;;16.40;85.30;;;19.41;54.57;101968.59;5034843;28;20206;-63
2023/08/10 04:52:42;;;;;;;9.03;4.57;;;16.40;85.40;;;19.42;54.65;101965.72;5035220;28;20201;-60
2023/08/10 04:55:11;;;;;;;9.13;4.30;;;16.40;85.50;;;19.41;55.10;101960.59;5035183;28;20197;-61
2023/08/10 04:57:38;;;;;;;5.13;4.13;;;16.40;85.60;;;19.40;54.79;101962.44;5034756;28;20191;-62
2023/08/10 05:00:12;;;;;;;4.93;4.30;;;16.40;85.60;;;19.39;54.70;101971.50;5034343;28;20301;-63
2023/08/10 05:02:41;;;;;;;8.17;4.73;;;16.40;85.70;;;19.36;55.03;101966.53;5035224;28;20179;-62
2023/08/10 05:05:11;;;;;;;6.40;4.43;;;16.40;85.70;;;19.32;55.02;101967.94;5033184;28;20198;-62
2023/08/10 05:07:38;;;;;;;5.60;5.03;;;16.30;85.60;;;19.27;54.87;101977.56;5034794;28;20207;-61
2023/08/10 05:10:08;;;;;;;7.53;4.90;;;16.30;85.50;;;19.24;55.01;101978.81;5034562;28;20206;-62
2023/08/10 05:12:38;;;;;;;6.77;3.90;;;16.30;85.80;;;19.25;55.12;101976.97;5034495;28;20195;-62
2023/08/10 05:15:08;;;;;;;6.07;4.47;;;16.30;86.10;;;19.28;55.37;101971.22;5034386;28;20229;-62
2023/08/10 05:17:35;;;;;;;5.30;4.27;;;16.30;86.10;;;19.29;55.33;101970.19;5034626;28;20190;-60
2023/08/10 05:20:10;;;;;;;4.93;3.93;;;16.30;86.10;;;19.28;55.30;101974.69;5033993;28;20206;-62
2023/08/10 05:22:40;;;;;;;5.07;4.30;;;16.30;85.90;;;19.30;55.07;101971.84;5034398;28;20190;-61
2023/08/10 05:25:08;;;;;;;9.43;4.93;;;16.30;86.00;;;19.27;54.96;101977.56;5033544;28;20191;-63
2023/08/10 05:27:36;;;;;;;5.73;3.80;;;16.30;85.90;;;19.27;55.18;101972.25;5034192;28;20252;-63
2023/08/10 05:30:11;;;;;;;7.97;5.10;;;16.30;85.90;;;19.29;55.35;101970.19;5033663;28;20297;-62
2023/08/10 05:32:40;;;;;;;6.90;4.70;;;16.30;86.10;;;19.32;55.07;101969.78;5034354;28;20181;-62
2023/08/10 05:35:08;;;;;;;9.03;4.57;;;16.40;86.20;;;19.37;55.12;101978.06;5033780;28;20194;-63
2023/08/10 05:37:36;;;;;;;11.20;4.63;;;16.40;86.10;;;19.36;55.32;101976.41;5033377;28;20536;-63
2023/08/10 05:40:09;;;;;;;6.87;4.40;;;16.40;86.00;;;19.37;55.02;101978.06;5033988;28;20218;-61
2023/08/10 05:42:37;;;;;;;6.67;4.50;;;16.40;86.00;;;19.39;55.23;101984.84;5034456;28;20671;-62
2023/08/10 05:45:06;;;;;;;6.27;4.53;;;16.40;86.00;;;19.44;54.94;101978.91;5033986;28;20576;-62
2023/08/10 05:47:34;;;;;;;7.30;4.60;;;16.50;86.10;;;19.46;54.85;101983.00;5032798;28;20572;-62
2023/08/10 05:50:02;;;;;;;5.13;4.10;;;16.50;86.10;;;19.50;55.26;101983.41;5033790;28;20214;-62
2023/08/10 05:52:29;;;;;;;6.93;4.03;;;16.50;86.00;;;19.52;54.67;101984.84;5034066;28;20194;-66
2023/08/10 05:54:56;;;;;;;7.83;4.70;;;16.50;86.00;;;19.56;54.67;101982.63;5033871;28;20222;-62
2023/08/10 05:57:25;;;;;;;4.83;4.30;;;16.50;85.90;;;19.59;54.59;101983.03;5033859;28;20269;-62
2023/08/10 05:59:53;;;;;;;6.97;4.47;;;16.60;86.10;;;19.63;54.86;101986.13;5032873;28;20293;-64
2023/08/10 06:02:20;;;;;;;9.57;4.10;;;16.60;86.10;;;19.70;55.18;101989.63;5033897;28;20566;-62
2023/08/10 06:04:49;;;;;;;8.63;4.40;;;16.60;86.00;;;19.72;54.96;101987.56;5033363;28;20214;-62
2023/08/10 06:07:16;;;;;;;8.30;3.83;;;16.70;85.90;;;19.76;54.60;101978.13;5033438;28;20249;-62
2023/08/10 06:09:43;;;;;;;7.40;4.03;;;16.70;85.80;;;19.84;54.81;101985.94;5033679;28;20214;-61
2023/08/10 06:12:10;;;;;;;6.27;3.50;;;16.80;85.90;;;19.91;54.59;101997.47;5033678;28;20277;-62
2023/08/10 06:14:39;;;;;;;7.30;3.83;;;16.80;85.60;;;19.96;54.18;101989.66;5033561;28;20284;-61
2023/08/10 06:17:06;;;;;;;6.63;3.93;;;16.90;85.30;;;19.97;54.04;101991.28;5033409;28;20221;-64
2023/08/10 06:19:34;;;;;;;6.30;3.97;;;16.90;85.10;;;20.03;54.32;101989.66;5032839;28;20233;-60
2023/08/10 06:22:01;;;;;;;6.97;4.50;;;17.00;85.30;;;20.09;54.22;101986.13;5033195;28;20198;-62
2023/08/10 06:24:30;;;;;;;10.40;8.00;;;17.00;85.20;;;20.19;54.36;101984.69;5033447;28;20197;-63
2023/08/10 06:26:57;;;;;;;9.47;4.50;;;17.10;85.30;;;20.28;53.49;101992.56;5033677;28;20261;-60
2023/08/10 06:29:24;;;;;;;9.47;5.63;;;17.20;85.00;;;20.36;54.09;101995.00;5032776;28;20234;-63
2023/08/10 06:31:54;;;;;;;5.50;4.60;;;17.20;84.70;;;20.46;53.37;101990.88;5033145;28;20193;-61
2023/08/10 06:34:22;;;;;;;13.33;7.50;;;17.30;84.80;;;20.59;53.11;101995.34;5031447;28;20554;-62
2023/08/10 06:36:49;;;;;;;7.20;3.80;;;17.40;84.60;;;20.70;53.14;101989.38;5032220;28;20183;-60
2023/08/10 06:39:16;;;;;;;6.47;3.57;;;17.50;84.10;;;20.82;52.50;101996.53;5032698;28;20257;-61
2023/08/10 06:41:43;;;;;;;5.87;3.27;;;17.60;83.60;;;20.90;52.64;101998.97;5032541;28;20187;-62
2023/08/10 06:44:10;;;;;;;8.53;3.20;;;17.70;83.20;;;20.97;52.44;101998.16;5032487;28;20263;-60
2023/08/10 06:46:37;;;;;;;4.73;2.77;;;17.80;82.80;;;21.02;52.15;101993.78;5031221;28;20313;-59
2023/08/10 06:49:06;;;;;;;6.13;2.33;;;17.80;82.20;;;21.11;51.93;101994.41;5032570;28;20194;-63
2023/08/10 06:51:33;;;;;;;6.47;2.37;;;17.90;82.20;;;21.21;51.76;102000.13;5032642;28;20228;-61
2023/08/10 06:54:00;;;;;;;4.37;2.57;;;18.00;82.10;;;21.31;51.21;102001.31;5032863;28;20201;-60
2023/08/10 06:56:27;;;;;;;4.73;2.20;;;18.10;81.80;;;21.41;50.98;102001.69;5033139;28;20544;-59
2023/08/10 06:58:55;;;;;;;5.23;2.73;;;18.20;81.40;;;21.53;50.41;102005.31;5032289;28;20627;-62
2023/08/10 07:01:25;;;;;;;6.37;2.23;;;18.30;81.00;;;21.62;50.44;102007.72;5032734;28;20254;-62
2023/08/10 07:03:52;;;;;;;4.67;2.10;;;18.40;80.40;;;21.71;50.15;102001.06;5031734;28;20195;-62
2023/08/10 07:06:20;;;;;;;4.13;2.23;;;18.50;79.30;;;21.77;49.31;102005.56;5032943;28;20722;-62
2023/08/10 07:08:52;;;;;;;4.13;1.83;;;18.60;78.40;;;21.82;48.71;102003.06;5032764;28;20199;-61
2023/08/10 07:11:19;;;;;;;8.20;2.50;;;18.70;78.50;;;21.89;49.07;101998.50;5032829;28;20289;-59
2023/08/10 07:13:46;;;;;;;6.73;2.00;;;18.70;78.20;;;21.94;48.80;102006.72;5032921;28;20197;-63
2023/08/10 07:16:13;;;;;;;5.17;2.37;;;18.80;77.90;;;22.00;48.50;102000.47;5032683;28;20270;-61
2023/08/10 07:18:41;;;;;;;4.23;1.90;;;18.80;77.50;;;22.05;48.28;102003.31;5032248;28;20666;-61
2023/08/10 07:21:07;;;;;;;3.97;2.00;;;18.90;76.80;;;22.12;48.20;102009.44;5032290;28;20289;-61
2023/08/10 07:23:36;;;;;;;3.53;1.60;;;18.90;76.10;;;22.16;47.64;102010.66;5032969;28;20183;-62
2023/08/10 07:26:03;;;;;;;5.40;2.17;;;19.00;75.30;;;22.20;47.36;102006.50;5032684;28;20264;-64
2023/08/10 07:28:30;;;;;;;4.20;2.07;;;19.10;74.70;;;22.24;46.58;102005.03;5032187;28;20649;-60
2023/08/10 07:31:00;;;;;;;6.33;2.00;;;19.10;74.60;;;22.27;46.40;102002.69;5032156;28;20252;-62
2023/08/10 07:33:28;;;;;;;5.27;2.47;;;19.10;74.40;;;22.33;46.28;102002.88;5032690;28;20194;-59
2023/08/10 07:35:55;;;;;;;4.97;1.33;;;19.20;74.00;;;22.40;46.10;101999.09;5032244;28;20194;-62
2023/08/10 07:38:23;;;;;;;5.73;1.67;;;19.30;74.20;;;22.50;45.47;102012.81;5031416;28;20713;-61
2023/08/10 07:40:51;;;;;;;3.77;1.50;;;19.30;72.50;;;22.59;45.48;102006.13;5032928;28;20285;-61
2023/08/10 07:43:18;;;;;;;2.27;1.27;;;19.40;72.90;;;22.69;44.74;102008.31;5035795;28;20198;-62
2023/08/10 07:45:46;;;;;;;4.83;1.53;;;19.50;71.40;;;22.76;43.96;102001.84;5036016;28;20229;-61
2023/08/10 07:48:13;;;;;;;4.03;1.60;;;19.60;70.40;;;22.89;43.81;102006.25;5035481;28;20211;-61
2023/08/10 07:50:40;;;;;;;4.83;1.80;;;19.60;69.70;;;23.42;43.11;102012.59;5035506;28;20210;-62
2023/08/10 07:53:07;;;;;;;1.77;1.20;;;19.80;69.80;;;24.19;42.22;102013.50;5035720;28;20664;-62
2023/08/10 07:55:34;;;;;;;2.87;1.40;;;20.00;70.80;;;24.83;41.62;102012.56;5035779;28;20225;-62
2023/08/10 07:58:03;;;;;;;3.13;1.40;;;20.50;69.70;;;25.33;39.20;102021.69;5035828;28;20222;-61
2023/08/10 08:00:30;;;;;;;4.93;2.03;;;20.80;66.50;;;25.63;38.38;102007.94;5035514;28;20234;-62
2023/08/10 08:02:57;;;;;;;4.40;1.60;;;21.30;65.40;;;26.33;37.57;102016.44;5035556;28;20191;-62
2023/08/10 08:05:24;;;;;;;2.60;1.73;;;21.60;64.90;;;26.84;37.18;102010.69;5035293;28;20198;-61
2023/08/10 08:07:51;;;;;;;2.40;1.20;;;22.10;64.00;;;27.33;35.42;102010.72;5035213;28;20648;-60
2023/08/10 08:10:18;;;;;;;5.40;1.67;;;22.50;61.20;;;27.60;34.20;102008.84;5035188;28;20206;-60
2023/08/10 08:12:45;;;;;;;3.27;1.90;;;22.80;59.30;;;27.80;33.77;102011.75;5035483;28;20637;-65
2023/08/10 08:15:14;;;;;;;3.60;1.53;;;23.10;58.70;;;28.21;33.43;102017.50;5035474;28;20191;-62
2023/08/10 08:18:37;;;;;;;6.57;2.83;;;23.40;57.60;;;29.30;32.03;102021.88;5035495;28;20178;-62
2023/08/10 08:21:05;;;;;;;3.30;2.50;;;23.80;56.90;;;29.93;31.13;102026.06;5015397;28;20286;-63
2023/08/10 08:23:32;;;;;;;3.97;2.20;;;24.30;55.40;;;29.81;30.46;102027.44;5015577;28;20656;-62
2023/08/10 08:25:59;;;;;;;3.00;1.90;;;24.60;53.60;;;30.10;30.29;102021.16;5020731;28;20194;-63
2023/08/10 08:28:26;;;;;;;6.10;4.60;;;24.90;53.90;;;30.70;30.43;102025.69;5034640;28;20268;-62
2023/08/10 08:30:55;;;;;;;3.77;2.30;;;25.20;54.40;;;31.24;29.03;102024.91;5034910;28;20729;-62
2023/08/10 08:33:22;;;;;;;4.07;1.60;;;25.50;51.40;;;30.90;28.71;102029.44;5034403;28;20187;-61
2023/08/10 08:35:50;;;;;;;3.40;2.20;;;25.60;50.30;;;30.33;29.70;102027.97;5025474;28;20197;-60
2023/08/10 08:38:18;;;;;;;2.83;1.80;;;25.60;50.50;;;30.37;29.60;102026.31;5029508;28;20222;-64
2023/08/10 08:40:48;;;;;;;4.50;1.73;;;25.50;49.80;;;30.71;28.38;102032.72;5034141;28;20272;-62
2023/08/10 08:43:17;;;;;;;4.47;1.60;;;25.60;49.90;;;31.35;27.94;102037.38;5034411;28;20199;-60
2023/08/10 08:45:44;;;;;;;4.73;2.00;;;25.80;49.30;;;31.84;27.49;102034.59;5034537;28;20281;-64
2023/08/10 08:48:17;;;;;;;5.93;3.27;;;26.00;49.20;;;32.78;26.07;102034.78;5034402;28;20305;-61
2023/08/10 08:50:46;;;;;;;7.20;2.70;;;26.40;47.50;;;32.84;25.88;102035.56;5034711;28;20290;-61
2023/08/10 08:53:13;;;;;;;8.93;2.40;;;26.70;46.70;;;32.97;26.13;102036.75;5034271;28;20193;-60
2023/08/10 08:55:41;;;;;;;6.10;3.73;;;27.00;46.40;;;33.80;25.34;102034.22;5034131;28;20218;-62
2023/08/10 08:58:09;;;;;;;3.60;2.00;;;27.30;46.90;;;33.59;25.19;102028.25;5034582;28;20269;-61
2023/08/10 09:00:38;;;;;;;2.37;1.20;;;27.50;45.30;;;33.43;24.46;102033.13;5034112;28;20777;-60
2023/08/10 09:03:06;;;;;;;2.97;1.50;;;27.70;43.30;;;33.36;24.64;102026.41;5034223;28;20214;-62
2023/08/10 09:05:34;;;;;;;2.37;1.43;;;27.70;42.50;;;33.29;24.82;102037.72;5034498;28;20190;-61
2023/08/10 09:08:03;;;;;;;3.13;1.33;;;27.70;42.60;;;33.29;24.62;102034.16;5034187;28;20702;-62
2023/08/10 09:10:31;;;;;;;5.20;1.60;;;27.70;42.30;;;33.26;24.72;102026.53;5033938;28;20221;-62
2023/08/10 09:13:11;;;;;;;4.10;1.90;;;27.70;42.60;;;32.98;24.67;102028.28;5034570;28;20195;-61
2023/08/10 09:15:38;;;;;;;4.70;1.80;;;27.70;41.80;;;32.18;25.35;102029.16;5028546;28;20303;-63
2023/08/10 09:18:06;;;;;;;5.53;1.80;;;27.40;42.10;;;31.73;25.89;102023.00;5032817;28;20194;-60
2023/08/10 09:20:34;;;;;;;10.53;2.37;;;27.20;43.20;;;32.26;26.07;102026.63;5033173;28;20233;-61
2023/08/10 09:23:02;;;;;;;2.77;1.77;;;27.10;44.10;;;32.32;26.25;102033.66;5033047;28;20237;-63
2023/08/10 09:25:36;;;;;;;2.37;1.10;;;27.10;43.70;;;32.30;25.66;102035.88;5033566;28;20612;-62
2023/08/10 09:28:10;;;;;;;1.83;1.43;;;27.10;43.40;;;33.48;24.87;102034.16;5033134;28;20206;-61
2023/08/10 09:30:38;;;;;;;3.83;1.63;;;27.20;43.60;;;34.93;23.00;102032.69;5032513;28;20301;-63
2023/08/10 09:33:05;;;;;;;3.60;1.80;;;27.50;43.40;;;36.15;22.28;102031.47;5033279;28;20194;-64
2023/08/10 09:35:34;;;;;;;3.13;1.70;;;28.10;42.80;;;37.14;20.88;102031.69;5033357;28;20194;-64
2023/08/10 09:38:03;;;;;;;3.28;1.80;;;28.60;41.30;;;38.12;20.02;102026.28;5032775;28;20194;-64
2023/08/10 09:40:31;;;;;;;2.75;1.73;;;29.30;40.40;;;38.85;18.68;102022.25;5033428;28;20210;-62
2023/08/10 09:42:58;;;;;;;3.08;1.90;;;29.90;38.10;;;39.42;18.55;102026.06;5032411;28;20736;-65
2023/08/10 09:45:25;;;;;;;4.65;2.13;;;30.40;37.10;;;39.95;17.99;102022.47;5032635;28;20228;-63
2023/08/10 09:47:54;;;;;;;2.78;1.92;;;30.90;37.00;;;39.95;17.23;102029.94;5033217;28;20596;-63
2023/08/10 09:50:21;;;;;;;5.18;2.05;;;31.40;34.40;;;39.34;17.94;102026.13;5033755;28;20215;-65
2023/08/10 09:52:52;;;;;;;2.75;1.85;;;31.70;33.80;;;38.03;19.02;102023.56;5033019;28;20226;-65
2023/08/10 09:55:19;;;;;;;6.32;4.72;;;31.60;33.20;;;36.74;20.30;102025.44;5017194;28;20281;-63
2023/08/10 09:57:49;;;;;;;4.60;2.53;;;31.30;34.00;;;35.58;20.70;102025.78;5022119;28;20187;-65
2023/08/10 10:00:21;;;;;;;6.20;1.77;;;30.80;33.70;;;34.35;22.00;102025.03;5030860;28;20221;-64
2023/08/10 10:02:48;;;;;;;4.27;2.10;;;30.20;34.70;;;33.77;23.23;102030.16;5033262;28;20198;-64
2023/08/10 10:05:17;;;;;;;2.80;1.77;;;29.60;36.00;;;34.12;22.74;102034.25;5031983;28;20237;-63
2023/08/10 10:08:04;;;;;;;3.53;1.77;;;29.20;37.20;;;33.76;23.37;102030.44;5031084;28;20228;-63
2023/08/10 10:10:35;;;;;;;2.43;2.10;;;28.80;37.60;;;33.20;24.08;102028.56;5032747;28;20217;-64
2023/08/10 10:13:09;;;;;;;2.63;1.50;;;28.60;38.00;;;32.41;24.78;102033.81;5032575;28;20179;-64
2023/08/10 10:15:39;;;;;;;3.83;1.80;;;28.30;38.60;;;32.14;25.16;102033.56;5032747;28;20194;-63
2023/08/10 10:18:09;;;;;;;4.87;1.80;;;27.90;39.60;;;33.20;24.49;102031.28;5032142;28;20193;-65